Time;durP1;ratioP1;P1;durP2;ratioP2;P2;SDS_P1;SDS_P2;PMS_P1;PMS_P2;Temp;Humidity;BMP_temperature;BMP_pressure;BME280_temperature;BME280_humidity;BME280_pressure;Samples;Min_cycle;Max_cycle;Signal;HPM_P1;HPM_P2
2022/05/26 00:01:38;;;;;;;4.63;2.10;;;;;;;14.06;76.66;101571.03;5011292;28;20080;-89
2022/05/26 00:04:04;;;;;;;3.58;2.03;;;;;;;14.03;77.07;101571.19;5011947;28;20040;-90
2022/05/26 00:06:30;;;;;;;2.53;2.05;;;;;;;14.04;76.66;101562.19;5011873;28;20026;-89
2022/05/26 00:08:56;;;;;;;2.40;2.10;;;;;;;14.00;76.95;101553.47;5009233;28;20208;-89
2022/05/26 00:11:25;;;;;;;4.30;2.40;;;;;;;14.03;77.11;101558.66;5012008;28;20036;-89
2022/05/26 00:13:51;;;;;;;3.65;2.08;;;;;;;13.99;77.48;101553.56;5011157;28;20523;-90
2022/05/26 00:16:18;;;;;;;3.60;2.25;;;;;;;13.95;77.18;101559.06;5011581;28;20022;-90
2022/05/26 00:18:44;;;;;;;6.60;2.33;;;;;;;13.87;77.75;101547.91;5008786;28;20022;-89
2022/05/26 00:21:10;;;;;;;4.47;2.63;;;;;;;13.80;78.17;101559.91;5011635;28;20041;-89
2022/05/26 00:23:35;;;;;;;6.28;2.55;;;;;;;13.70;78.73;101558.63;5009746;28;20025;-90
2022/05/26 00:26:01;;;;;;;2.88;2.08;;;;;;;13.59;79.10;101558.34;5011268;28;20105;-90
2022/05/26 00:28:26;;;;;;;3.88;2.10;;;;;;;13.54;79.51;101563.06;5009688;28;20042;-90
2022/05/26 00:30:53;;;;;;;5.07;2.38;;;;;;;13.48;80.13;101558.03;5009562;28;20471;-88
2022/05/26 00:33:19;;;;;;;5.68;2.42;;;;;;;13.46;80.32;101560.81;5010334;28;20030;-91
2022/05/26 00:35:45;;;;;;;4.45;2.42;;;;;;;13.48;80.23;101563.38;5009745;28;20038;-90
2022/05/26 00:38:13;;;;;;;5.97;2.88;;;;;;;13.47;80.47;101561.66;5004184;28;20248;-90
2022/05/26 00:40:40;;;;;;;4.78;2.50;;;;;;;13.42;80.81;101570.78;5009020;28;20388;-89
2022/05/26 00:43:07;;;;;;;6.97;2.75;;;;;;;13.40;81.08;101572.66;5009161;28;20558;-89
2022/05/26 00:45:37;;;;;;;6.90;2.45;;;;;;;13.42;81.12;101567.25;5010084;28;20101;-88
2022/05/26 00:48:07;;;;;;;8.73;2.67;;;;;;;13.45;81.19;101569.75;5009227;28;20507;-91
2022/05/26 00:50:40;;;;;;;5.93;2.65;;;;;;;13.49;80.96;101570.44;5007860;28;20034;-90
2022/05/26 00:53:21;;;;;;;7.35;2.70;;;;;;;13.53;80.65;101569.34;5008113;28;20034;-88
2022/05/26 00:55:55;;;;;;;6.13;2.55;;;;;;;13.55;80.71;101565.66;5009538;28;20033;-89
2022/05/26 00:58:28;;;;;;;6.47;2.60;;;;;;;13.59;81.04;101572.59;5008174;28;20034;-90
2022/05/26 01:00:55;;;;;;;6.72;2.40;;;;;;;13.57;80.59;101562.91;5009024;28;20025;-90
2022/05/26 01:03:30;;;;;;;7.65;2.80;;;;;;;13.65;80.63;101571.41;5009874;28;20026;-89
2022/05/26 01:06:08;;;;;;;5.40;2.95;;;;;;;13.68;80.69;101566.75;5009599;28;20042;-90
2022/05/26 01:08:54;;;;;;;7.43;3.30;;;;;;;13.67;80.40;101569.53;5007388;28;20049;-90
2022/05/26 01:11:19;;;;;;;7.05;2.70;;;;;;;13.67;80.67;101570.38;5009518;28;20396;-89
2022/05/26 01:13:52;;;;;;;9.55;3.30;;;;;;;13.69;80.55;101578.31;5009660;28;20083;-90
2022/05/26 01:16:53;;;;;;;5.22;2.83;;;;;;;13.73;80.18;101569.19;5010008;28;20491;-91
2022/05/26 01:19:46;;;;;;;6.85;3.03;;;;;;;13.75;80.28;101569.09;5002929;28;20045;-91
2022/05/26 01:22:53;;;;;;;5.95;2.88;;;;;;;13.77;80.16;101573.44;5009451;28;20038;-91
2022/05/26 01:25:40;;;;;;;7.75;2.92;;;;;;;13.76;80.90;101589.56;5010270;28;20504;-89
2022/05/26 01:28:11;;;;;;;6.53;2.87;;;;;;;13.76;80.59;101582.41;4973437;28;1021807;-90
2022/05/26 01:30:53;;;;;;;7.75;3.10;;;;;;;13.78;80.33;101585.00;5011836;28;20521;-88
2022/05/26 01:33:40;;;;;;;6.82;2.95;;;;;;;13.79;80.45;101576.00;5011930;28;20033;-90
2022/05/26 01:36:35;;;;;;;6.72;3.20;;;;;;;13.77;80.35;101581.44;5009349;28;20161;-89
2022/05/26 01:39:20;;;;;;;8.20;3.20;;;;;;;13.80;80.36;101577.75;4979566;28;20145;-90
2022/05/26 01:41:48;;;;;;;9.70;3.40;;;;;;;13.76;81.10;101584.22;5009443;28;20072;-90
2022/05/26 01:44:37;;;;;;;6.13;3.70;;;;;;;13.73;81.00;101584.38;5010089;28;20463;-91
2022/05/26 01:47:29;;;;;;;10.80;4.35;;;;;;;13.73;81.34;101587.91;5010051;28;20053;-90
2022/05/26 01:50:05;;;;;;;11.07;3.65;;;;;;;13.73;81.19;101587.06;5007596;28;20081;-90
2022/05/26 01:52:40;;;;;;;7.20;3.40;;;;;;;13.70;81.77;101585.38;5009632;28;20066;-90
2022/05/26 01:55:09;;;;;;;7.05;3.90;;;;;;;13.70;82.28;101594.28;5009790;28;20030;-90
2022/05/26 01:57:45;;;;;;;9.55;4.47;;;;;;;13.66;82.57;101594.50;5008631;28;20125;-91
2022/05/26 02:00:17;;;;;;;8.45;3.88;;;;;;;13.61;82.83;101585.88;5008053;28;20073;-91
2022/05/26 02:02:56;;;;;;;8.32;4.00;;;;;;;13.66;82.50;101611.44;5008880;28;20069;-92
2022/05/26 02:05:26;;;;;;;11.60;4.50;;;;;;;13.63;83.07;101610.75;5009178;28;20026;-89
2022/05/26 02:07:58;;;;;;;6.65;3.92;;;;;;;13.63;83.15;101600.91;5007423;28;20108;-91
2022/05/26 02:10:32;;;;;;;10.00;4.72;;;;;;;13.63;82.84;101605.41;5009550;28;20038;-90
2022/05/26 02:13:33;;;;;;;7.15;4.68;;;;;;;13.68;82.37;101614.03;5009298;28;20110;-90
2022/05/26 02:16:17;;;;;;;12.50;4.88;;;;;;;13.65;82.50;101606.16;5009163;28;20101;-89
2022/05/26 02:18:48;;;;;;;10.80;5.63;;;;;;;13.62;82.80;101606.31;5007342;28;20415;-89
2022/05/26 02:21:24;;;;;;;10.32;5.18;;;;;;;13.65;82.64;101619.53;5009549;28;20030;-91
2022/05/26 02:24:00;;;;;;;13.05;5.93;;;;;;;13.64;82.50;101624.03;5009031;28;20025;-90
2022/05/26 02:26:25;;;;;;;14.75;6.18;;;;;;;13.66;82.61;101623.94;5009512;28;20574;-89
2022/05/26 02:31:34;;;;;;;;;;;;;;;13.69;81.60;101621.97;5009588;28;20041;-90
2022/05/26 02:34:01;;;;;;;12.00;6.00;;;;;;;13.62;82.66;101627.72;5008415;28;19918;-89
2022/05/26 02:36:34;;;;;;;12.18;5.75;;;;;;;13.59;82.65;101620.72;4993646;28;20030;-91
2022/05/26 02:38:59;;;;;;;12.00;5.93;;;;;;;13.61;82.85;101626.00;5003719;28;20041;-90
2022/05/26 02:41:25;;;;;;;12.88;6.15;;;;;;;13.64;82.94;101633.88;5009194;28;20032;-91
2022/05/26 02:43:51;;;;;;;14.65;6.88;;;;;;;13.60;83.07;101624.28;5008626;28;20057;-90
2022/05/26 02:46:44;;;;;;;13.68;6.50;;;;;;;13.64;82.47;101632.06;5009170;28;20025;-90
2022/05/26 02:49:38;;;;;;;14.85;6.68;;;;;;;13.64;82.39;101629.38;5007014;28;20092;-90
2022/05/26 02:52:09;;;;;;;17.17;7.68;;;;;;;13.60;82.52;101633.16;4991008;28;20452;-89
2022/05/26 02:54:57;;;;;;;15.93;6.60;;;;;;;13.58;82.73;101634.16;5009074;28;20308;-90
2022/05/26 02:57:37;;;;;;;10.60;6.55;;;;;;;13.58;83.13;101634.16;5007693;28;20034;-89
2022/05/26 03:00:10;;;;;;;13.77;6.97;;;;;;;13.55;83.45;101634.34;5008795;28;20033;-91
2022/05/26 03:02:51;;;;;;;14.98;7.70;;;;;;;13.56;83.36;101638.75;5008168;28;20169;-91
2022/05/26 03:05:27;;;;;;;18.85;7.90;;;;;;;13.55;83.05;101642.38;5008790;28;20041;-89
2022/05/26 03:07:56;;;;;;;17.55;7.20;;;;;;;13.54;83.63;101640.63;5006652;28;20555;-90
2022/05/26 03:10:31;;;;;;;14.63;7.38;;;;;;;13.54;83.16;101640.63;5008538;28;20042;-89
2022/05/26 03:13:01;;;;;;;15.48;7.30;;;;;;;13.53;83.43;101637.06;5008400;28;20038;-90
2022/05/26 03:15:29;;;;;;;14.15;6.82;;;;;;;13.52;83.65;101646.06;5007921;28;20087;-90
2022/05/26 03:17:54;;;;;;;14.70;7.07;;;;;;;13.51;83.69;101643.47;5005388;28;20116;-90
2022/05/26 03:20:20;;;;;;;15.07;7.80;;;;;;;13.43;83.67;101635.81;5008251;28;20113;-92
2022/05/26 03:22:45;;;;;;;16.85;7.07;;;;;;;13.47;83.79;101641.88;5007887;28;20065;-90
2022/05/26 03:25:10;;;;;;;17.25;8.23;;;;;;;13.46;83.87;101641.03;5008604;28;20225;-90
2022/05/26 03:27:36;;;;;;;16.70;7.40;;;;;;;13.43;84.30;101639.34;5007459;28;20083;-90
2022/05/26 03:30:01;;;;;;;18.52;8.73;;;;;;;13.42;84.14;101645.66;5008571;28;20059;-89
2022/05/26 03:32:26;;;;;;;12.38;7.28;;;;;;;13.41;83.99;101651.06;5006728;28;20502;-90
2022/05/26 03:43:40;;;;;;;21.48;9.02;;;;;;;13.28;84.77;101668.66;4977956;28;20043;-90
2022/05/26 03:46:06;;;;;;;20.75;8.27;;;;;;;13.28;84.51;101657.97;4985584;28;20097;-90
2022/05/26 03:48:31;;;;;;;21.08;7.93;;;;;;;13.31;84.91;101669.38;4984445;28;20178;-90
2022/05/26 03:50:56;;;;;;;18.92;8.10;;;;;;;13.33;84.68;101672.81;4985845;28;20058;-90
2022/05/26 03:53:22;;;;;;;16.65;7.78;;;;;;;13.35;84.42;101670.97;4986137;28;20512;-90
2022/05/26 03:55:47;;;;;;;16.73;7.95;;;;;;;13.36;84.74;101671.81;4985051;28;20038;-90
2022/05/26 03:58:12;;;;;;;20.20;7.82;;;;;;;13.31;84.71;101669.38;4972266;28;20073;-89
2022/05/26 04:00:39;;;;;;;19.23;7.90;;;;;;;13.29;84.78;101670.38;4965703;28;20125;-91
2022/05/26 04:03:04;;;;;;;23.00;8.07;;;;;;;13.26;84.90;101676.78;4966317;28;20039;-89
2022/05/26 04:05:30;;;;;;;18.65;7.55;;;;;;;13.28;84.92;101680.22;4966272;28;20037;-90
2022/05/26 04:07:56;;;;;;;21.55;7.57;;;;;;;13.31;84.75;101692.56;4968086;28;20101;-91
2022/05/26 04:10:21;;;;;;;21.85;7.50;;;;;;;13.32;84.84;101689.81;4966515;28;20055;-90
2022/05/26 04:12:47;;;;;;;15.63;6.80;;;;;;;13.32;84.68;101687.16;4965597;28;20126;-90
2022/05/26 04:15:14;;;;;;;17.17;7.15;;;;;;;13.34;84.97;101700.47;4982290;28;20400;-91
2022/05/26 04:17:40;;;;;;;18.90;7.45;;;;;;;13.30;84.95;101691.72;4998378;28;20041;-89
2022/05/26 04:20:08;;;;;;;17.15;6.88;;;;;;;13.18;85.09;101681.59;5007863;28;20026;-89
2022/05/26 04:22:34;;;;;;;15.55;7.47;;;;;;;13.17;85.18;101696.75;5006783;28;20045;-91
2022/05/26 04:25:00;;;;;;;23.23;7.57;;;;;;;13.10;85.14;101692.63;5007480;28;20030;-90
2022/05/26 04:27:29;;;;;;;22.25;7.45;;;;;;;13.06;85.95;101700.88;5008821;28;20391;-90
2022/05/26 04:29:55;;;;;;;16.00;7.03;;;;;;;12.95;85.97;101694.22;5010291;28;20046;-90
2022/05/26 04:32:21;;;;;;;20.08;7.28;;;;;;;12.94;86.50;101715.69;5011459;28;20426;-91
2022/05/26 04:34:48;;;;;;;18.17;7.57;;;;;;;12.90;86.81;101711.41;5009663;28;20030;-91
2022/05/26 04:37:15;;;;;;;17.92;7.43;;;;;;;12.88;86.84;101718.66;5009734;28;20026;-90
2022/05/26 04:39:40;;;;;;;23.25;7.68;;;;;;;12.87;87.17;101711.56;5010699;28;20068;-89
2022/05/26 04:42:06;;;;;;;20.80;7.35;;;;;;;12.96;86.99;101713.81;5011719;28;20471;-91
2022/05/26 04:44:34;;;;;;;16.98;7.15;;;;;;;13.02;86.99;101724.22;5011098;28;20034;-90
2022/05/26 04:47:00;;;;;;;19.65;7.50;;;;;;;13.10;86.63;101719.38;5008835;28;20022;-90
2022/05/26 04:49:26;;;;;;;20.83;7.25;;;;;;;13.19;86.13;101716.25;5011466;28;20034;-90
2022/05/26 04:51:52;;;;;;;20.52;6.90;;;;;;;13.30;85.46;101717.59;5011224;28;20112;-89
2022/05/26 04:54:18;;;;;;;18.02;7.20;;;;;;;13.40;85.51;101721.53;5013030;28;20456;-90
2022/05/26 04:56:43;;;;;;;21.08;7.55;;;;;;;13.47;84.99;101724.78;5010273;28;20057;-89
2022/05/26 04:59:09;;;;;;;17.92;6.45;;;;;;;13.53;84.25;101722.66;5011699;28;20137;-91
2022/05/26 05:01:34;;;;;;;20.33;8.27;;;;;;;13.60;83.74;101725.91;5012468;28;20030;-89
2022/05/26 05:04:00;;;;;;;23.35;7.35;;;;;;;13.63;83.67;101725.78;5010610;28;20022;-91
2022/05/26 05:06:25;;;;;;;21.92;8.20;;;;;;;13.66;83.13;101730.94;5009568;28;20040;-91
2022/05/26 05:08:51;;;;;;;20.10;7.50;;;;;;;13.65;83.14;101746.13;5010584;28;20022;-90
2022/05/26 05:11:16;;;;;;;21.67;7.93;;;;;;;13.69;83.11;101746.84;5010754;28;20288;-89
2022/05/26 05:13:41;;;;;;;20.10;7.60;;;;;;;13.72;83.00;101752.06;5009955;28;20025;-89
2022/05/26 05:16:18;;;;;;;22.42;7.47;;;;;;;13.73;83.36;101740.41;5008937;28;20022;-89
2022/05/26 05:18:44;;;;;;;22.25;8.00;;;;;;;13.78;83.09;101742.84;5009935;28;20056;-90
2022/05/26 05:21:13;;;;;;;23.33;7.70;;;;;;;13.82;82.89;101742.63;5010431;28;20100;-90
2022/05/26 05:23:43;;;;;;;23.75;8.15;;;;;;;13.93;82.60;101763.50;5009895;28;20180;-90
2022/05/26 05:26:12;;;;;;;25.25;8.25;;;;;;;13.95;82.27;101757.13;4995514;28;20121;-91
2022/05/26 05:28:43;;;;;;;24.98;8.27;;;;;;;14.02;81.93;101763.03;5009455;28;20141;-92
2022/05/26 05:31:22;;;;;;;22.90;7.68;;;;;;;14.11;81.56;101767.91;5010666;28;20037;-90
2022/05/26 05:33:56;;;;;;;20.95;7.88;;;;;;;14.23;81.29;101770.91;4997246;28;20080;-90
2022/05/26 05:36:26;;;;;;;19.05;7.53;;;;;;;14.29;81.13;101779.47;4998533;28;20092;-91
2022/05/26 05:38:51;;;;;;;20.52;7.15;;;;;;;14.31;80.15;101771.41;5008076;28;20415;-92
2022/05/26 05:41:18;;;;;;;18.52;7.13;;;;;;;14.32;80.04;101776.66;5009635;28;20265;-90
2022/05/26 05:43:46;;;;;;;23.80;8.13;;;;;;;14.38;79.87;101784.41;5011208;28;20030;-90
2022/05/26 05:46:12;;;;;;;18.45;6.97;;;;;;;14.35;80.02;101778.31;5010483;28;20022;-89
2022/05/26 05:48:38;;;;;;;23.90;7.53;;;;;;;14.37;80.00;101785.31;5009564;28;20022;-90
2022/05/26 05:51:03;;;;;;;17.30;7.63;;;;;;;14.40;79.65;101782.47;5010329;28;20029;-89
2022/05/26 05:53:29;;;;;;;21.50;8.15;;;;;;;14.44;79.65;101785.88;5010358;28;20026;-90
2022/05/26 05:55:54;;;;;;;24.73;8.38;;;;;;;14.47;79.65;101788.41;5008029;28;20026;-91
2022/05/26 05:58:19;;;;;;;20.42;8.13;;;;;;;14.56;79.44;101787.09;5009120;28;20029;-91
2022/05/26 06:00:44;;;;;;;19.55;7.72;;;;;;;14.64;79.12;101798.28;5011081;28;20036;-90
2022/05/26 06:03:10;;;;;;;21.38;8.25;;;;;;;14.61;79.09;101793.06;5012369;28;20089;-89
2022/05/26 06:05:36;;;;;;;18.67;9.70;;;;;;;14.59;79.21;101806.56;5008925;28;20033;-90
2022/05/26 06:08:01;;;;;;;19.92;9.70;;;;;;;14.65;78.63;101803.53;5007824;28;20108;-91
2022/05/26 06:10:29;;;;;;;20.85;9.30;;;;;;;14.68;78.91;101799.84;5009698;28;20030;-90
2022/05/26 06:12:54;;;;;;;23.75;9.40;;;;;;;14.79;78.03;101805.47;5008754;28;20034;-90
2022/05/26 06:15:20;;;;;;;27.85;9.93;;;;;;;14.88;77.46;101810.38;5008530;28;20029;-91
2022/05/26 06:17:45;;;;;;;25.13;9.63;;;;;;;14.99;76.96;101809.78;5007732;28;20046;-90
2022/05/26 06:20:12;;;;;;;20.60;9.23;;;;;;;15.06;76.99;101821.03;5009351;28;20053;-91
2022/05/26 06:22:46;;;;;;;20.15;9.60;;;;;;;15.08;76.81;101819.13;5008950;28;20072;-91
2022/05/26 06:25:13;;;;;;;23.25;11.70;;;;;;;15.13;76.23;101819.75;5009126;28;20022;-90
2022/05/26 06:30:23;;;;;;;;;;;;;;;15.30;75.73;101833.13;5001653;28;20041;-90
2022/05/26 06:38:21;;;;;;;28.88;14.05;;;;;;;15.32;75.09;101828.53;5009568;28;20049;-90
2022/05/26 06:40:47;;;;;;;30.65;16.25;;;;;;;15.19;75.39;101827.47;5008072;28;20346;-91
2022/05/26 06:43:14;;;;;;;29.50;16.13;;;;;;;15.30;75.16;101833.13;5009049;28;20076;-91
2022/05/26 06:45:41;;;;;;;29.08;16.17;;;;;;;15.34;74.84;101841.84;5007061;28;20575;-90
2022/05/26 06:48:07;;;;;;;29.52;16.35;;;;;;;15.26;75.43;101838.72;5009008;28;20029;-91
2022/05/26 06:50:33;;;;;;;32.65;17.77;;;;;;;15.52;74.70;101837.28;5009123;28;20029;-89
2022/05/26 06:52:58;;;;;;;34.90;18.02;;;;;;;15.79;72.89;101849.19;5008366;28;20364;-90
2022/05/26 06:55:24;;;;;;;29.60;17.75;;;;;;;15.98;72.91;101842.78;5006947;28;20065;-90
2022/05/26 06:57:49;;;;;;;28.50;17.33;;;;;;;16.11;71.39;101851.84;4987514;28;20405;-90
2022/05/26 07:00:15;;;;;;;27.52;17.63;;;;;;;16.09;71.07;101851.06;4989492;28;20117;-90
2022/05/26 07:02:41;;;;;;;26.38;17.85;;;;;;;16.07;71.62;101853.84;4989001;28;20038;-91
2022/05/26 07:05:08;;;;;;;32.72;18.70;;;;;;;16.15;71.09;101854.25;4990545;28;20037;-91
2022/05/26 07:07:35;;;;;;;33.47;17.77;;;;;;;16.16;71.14;101847.94;5008202;28;20037;-92
2022/05/26 07:10:01;;;;;;;28.20;17.85;;;;;;;16.28;70.00;101865.16;5009284;28;20479;-91
2022/05/26 07:12:26;;;;;;;27.77;18.90;;;;;;;16.18;69.57;101863.97;5009308;28;20034;-91
2022/05/26 07:14:52;;;;;;;29.20;18.08;;;;;;;16.10;70.22;101869.78;5009373;28;20044;-91
2022/05/26 07:17:18;;;;;;;27.77;17.90;;;;;;;16.22;70.33;101878.06;5007421;28;20021;-92
2022/05/26 07:19:43;;;;;;;29.65;18.17;;;;;;;16.42;70.15;101872.38;5007005;28;20076;-92
2022/05/26 07:22:09;;;;;;;29.13;19.83;;;;;;;16.57;68.85;101871.50;5008741;28;20053;-90
2022/05/26 07:24:35;;;;;;;31.08;18.80;;;;;;;16.67;68.50;101871.78;5007575;28;20451;-91
2022/05/26 07:27:01;;;;;;;30.95;19.48;;;;;;;16.87;67.88;101876.00;5006793;28;20034;-91
2022/05/26 07:29:27;;;;;;;32.92;19.15;;;;;;;16.90;68.10;101874.00;5006918;28;20467;-89
2022/05/26 07:31:53;;;;;;;26.52;19.30;;;;;;;16.86;67.40;101868.91;5007905;28;20095;-91
2022/05/26 07:34:19;;;;;;;28.70;18.90;;;;;;;17.16;66.98;101880.44;5008769;28;20113;-91
2022/05/26 07:42:16;;;;;;;29.02;19.52;;;;;;;17.38;65.12;101896.13;5008892;28;20194;-89
2022/05/26 07:44:45;;;;;;;25.67;19.30;;;;;;;17.32;64.62;101907.28;5006953;28;20057;-91
2022/05/26 07:47:10;;;;;;;22.45;18.83;;;;;;;17.13;66.21;101904.00;5007873;28;20380;-89
2022/05/26 07:49:38;;;;;;;31.35;19.38;;;;;;;17.01;66.29;101904.75;5008714;28;20026;-90
2022/05/26 07:52:04;;;;;;;28.92;20.05;;;;;;;17.25;66.28;101905.06;5007630;28;20046;-90
2022/05/26 07:54:29;;;;;;;30.30;19.42;;;;;;;18.48;61.84;101900.72;5010088;28;20030;-91
2022/05/26 07:56:56;;;;;;;27.45;18.63;;;;;;;19.09;59.14;101899.22;5006820;28;20038;-91
2022/05/26 07:59:22;;;;;;;25.15;19.45;;;;;;;18.89;58.56;101900.59;5009005;28;20448;-91
2022/05/26 08:01:48;;;;;;;27.98;20.08;;;;;;;19.17;58.46;101899.56;5009955;28;20057;-91
2022/05/26 08:04:14;;;;;;;25.02;17.90;;;;;;;19.92;56.09;101906.81;5012273;28;20383;-91
2022/05/26 08:06:39;;;;;;;21.75;18.75;;;;;;;20.03;55.20;101894.25;5010264;28;20376;-91
2022/05/26 08:09:04;;;;;;;27.30;18.98;;;;;;;20.04;56.43;101906.78;5011229;28;20037;-91
2022/05/26 08:11:30;;;;;;;21.70;18.23;;;;;;;20.24;53.63;101908.00;5012497;28;20033;-92
2022/05/26 08:13:55;;;;;;;26.10;19.95;;;;;;;20.18;54.64;101913.84;5011858;28;20072;-92
2022/05/26 08:16:20;;;;;;;23.40;19.50;;;;;;;20.54;54.26;101909.41;5009296;28;20038;-91
2022/05/26 08:18:46;;;;;;;22.48;18.27;;;;;;;20.83;51.56;101905.31;5011166;28;20395;-91
2022/05/26 08:21:16;;;;;;;22.88;17.67;;;;;;;20.59;52.49;101907.22;5011587;28;20022;-91
2022/05/26 08:23:41;;;;;;;22.55;18.08;;;;;;;20.59;53.67;101918.03;5011465;28;20108;-91
2022/05/26 08:26:07;;;;;;;24.23;18.08;;;;;;;21.47;51.34;101926.50;5009601;28;20112;-91
2022/05/26 08:28:33;;;;;;;19.15;16.02;;;;;;;22.61;47.91;101916.22;5010716;28;20050;-91
2022/05/26 08:30:59;;;;;;;16.20;14.55;;;;;;;23.42;43.82;101921.91;5012133;28;20022;-90
2022/05/26 08:33:26;;;;;;;18.73;15.93;;;;;;;23.58;44.11;101911.41;5012403;28;20067;-90
2022/05/26 08:36:15;;;;;;;22.10;15.52;;;;;;;24.22;43.80;101918.34;5010319;28;20042;-91
2022/05/26 08:38:41;;;;;;;18.73;16.17;;;;;;;23.50;43.70;101918.53;5009863;28;20084;-91
2022/05/26 08:41:10;;;;;;;17.05;15.20;;;;;;;23.68;43.46;101913.31;5011851;28;20026;-93
2022/05/26 08:43:41;;;;;;;18.35;15.32;;;;;;;24.42;41.01;101923.84;5011039;28;20112;-91
2022/05/26 08:46:12;;;;;;;18.23;15.65;;;;;;;24.59;41.08;101923.13;5008655;28;20037;-89
2022/05/26 08:48:59;;;;;;;20.40;15.13;;;;;;;25.10;41.13;101932.84;5010567;28;20029;-92
2022/05/26 08:51:50;;;;;;;22.45;16.10;;;;;;;23.98;42.89;101937.75;5011119;28;20030;-91
2022/05/26 08:54:33;;;;;;;20.13;15.75;;;;;;;22.20;45.46;101937.81;5005646;28;20128;-93
2022/05/26 08:57:00;;;;;;;20.42;16.45;;;;;;;21.00;48.34;101941.06;5009732;28;20112;-92
2022/05/26 08:59:40;;;;;;;19.73;16.45;;;;;;;20.24;50.90;101945.88;5011154;28;20030;-91
2022/05/26 09:02:21;;;;;;;20.13;16.65;;;;;;;20.79;50.76;101930.91;5012269;28;20187;-93
2022/05/26 09:04:46;;;;;;;20.15;17.20;;;;;;;21.85;48.58;101952.34;5010347;28;20076;-91
2022/05/26 09:12:57;;;;;;;19.25;14.75;;;;;;;23.28;43.78;101947.59;5010595;28;20041;-92
2022/05/26 09:15:34;;;;;;;19.08;15.13;;;;;;;22.49;46.48;101946.19;5010847;28;20026;-94
2022/05/26 09:18:10;;;;;;;18.30;14.85;;;;;;;22.06;46.68;101955.16;5012469;28;20032;-91
2022/05/26 09:20:39;;;;;;;20.05;14.65;;;;;;;22.01;45.08;101954.69;5011901;28;20334;-92
2022/05/26 09:23:25;;;;;;;21.52;13.65;;;;;;;23.96;43.65;101950.63;5011242;28;20108;-92
2022/05/26 09:25:55;;;;;;;16.58;13.05;;;;;;;24.38;40.72;101953.19;5010894;28;20301;-93
2022/05/26 09:28:41;;;;;;;14.88;12.63;;;;;;;25.21;40.16;101954.47;5012313;28;20067;-93
2022/05/26 09:31:49;;;;;;;15.25;12.07;;;;;;;24.72;39.73;101958.22;5012180;28;20622;-92
2022/05/26 09:34:14;;;;;;;16.70;12.77;;;;;;;23.38;41.86;101960.34;4971774;28;20492;-93
2022/05/26 09:36:52;;;;;;;13.60;10.57;;;;;;;23.81;41.33;101971.88;5010330;28;20026;-92
2022/05/26 09:39:30;;;;;;;16.60;11.10;;;;;;;23.53;41.30;101970.72;5012704;28;20102;-93
2022/05/26 09:41:59;;;;;;;11.48;10.27;;;;;;;23.82;40.21;101964.59;5012073;28;20503;-93
2022/05/26 09:44:49;;;;;;;12.35;9.80;;;;;;;25.04;39.62;101974.25;5010228;28;20136;-91
2022/05/26 09:47:28;;;;;;;10.95;8.70;;;;;;;24.25;39.87;101983.34;5012497;28;20068;-93
2022/05/26 09:49:57;;;;;;;9.70;8.70;;;;;;;25.08;37.76;101976.59;5012177;28;20022;-94
2022/05/26 09:52:25;;;;;;;10.57;7.80;;;;;;;26.99;34.37;101981.38;5012374;28;20391;-93
2022/05/26 09:55:05;;;;;;;11.68;9.05;;;;;;;27.39;35.41;101981.88;5011016;28;20085;-90
2022/05/26 09:57:31;;;;;;;10.73;8.70;;;;;;;25.47;36.24;101975.66;5011579;28;20558;-93
2022/05/26 09:59:57;;;;;;;9.60;8.10;;;;;;;24.04;39.16;101983.44;5013086;28;20319;-91
2022/05/26 10:02:36;;;;;;;8.73;7.82;;;;;;;24.75;40.38;101979.72;5013079;28;20026;-93
2022/05/26 10:05:09;;;;;;;10.20;9.07;;;;;;;25.23;37.42;101978.84;5012549;28;20093;-94
2022/05/26 10:07:53;;;;;;;11.88;8.88;;;;;;;26.76;36.53;101991.09;5013823;28;20029;-94
2022/05/26 10:10:26;;;;;;;10.43;7.47;;;;;;;27.17;34.84;101984.13;5014127;28;20022;-92
2022/05/26 10:13:17;;;;;;;;;;;;;;;28.38;34.14;101984.94;5012727;28;20086;-93
2022/05/26 10:15:58;;;;;;;11.13;7.43;;;;;;;27.87;31.47;101975.00;5010920;28;20179;-93
2022/05/26 10:18:49;;;;;;;9.20;6.93;;;;;;;26.75;35.68;102003.88;5012190;28;20041;-93
2022/05/26 10:22:08;;;;;;;8.35;6.75;;;;;;;27.48;34.70;101975.44;5009986;28;20192;-93
2022/05/26 10:24:39;;;;;;;9.50;6.80;;;;;;;26.42;35.25;101990.84;4966563;28;20043;-94
2022/05/26 10:27:32;;;;;;;8.93;6.03;;;;;;;24.99;37.65;101992.88;4968424;28;20047;-93
2022/05/26 10:30:31;;;;;;;11.45;6.80;;;;;;;23.53;39.43;101997.03;4967945;28;20547;-92
2022/05/26 10:33:12;;;;;;;6.78;5.78;;;;;;;22.38;41.42;101996.81;4968040;28;20133;-92
2022/05/26 10:36:01;;;;;;;7.03;5.88;;;;;;;23.31;39.81;101982.59;4967767;28;20050;-93
2022/05/26 10:38:39;;;;;;;7.78;6.07;;;;;;;25.65;36.41;101971.13;4968227;28;20178;-94
2022/05/26 10:41:25;;;;;;;6.07;5.03;;;;;;;27.73;33.98;101988.28;4968121;28;20035;-92
2022/05/26 10:43:59;;;;;;;6.50;5.35;;;;;;;27.10;33.75;101993.97;4967962;28;20043;-94
2022/05/26 10:46:27;;;;;;;15.18;10.15;;;;;;;25.01;35.79;101994.47;4968508;28;20074;-92
2022/05/26 10:49:30;;;;;;;6.93;5.43;;;;;;;23.66;38.99;101994.13;4967287;28;20130;-93
2022/05/26 10:52:02;;;;;;;7.95;5.38;;;;;;;24.60;38.84;101995.59;4955714;28;20046;-94
2022/05/26 10:54:44;;;;;;;7.63;6.10;;;;;;;27.08;35.78;101990.50;4976383;28;20519;-94
2022/05/26 10:57:30;;;;;;;11.82;5.75;;;;;;;28.40;32.98;101977.44;5009702;28;20026;-94
2022/05/26 11:00:27;;;;;;;7.03;5.05;;;;;;;28.04;31.33;101988.56;5009586;28;20068;-93
2022/05/26 11:02:59;;;;;;;6.53;4.95;;;;;;;26.15;33.31;101989.03;5008128;28;20428;-94
2022/05/26 11:05:35;;;;;;;9.43;4.55;;;;;;;24.78;36.87;101980.28;5007929;28;20032;-93
2022/05/26 11:08:13;;;;;;;7.88;4.57;;;;;;;23.73;38.82;101989.88;5008939;28;20053;-92
2022/05/26 11:10:51;;;;;;;6.85;5.38;;;;;;;22.59;40.60;101996.00;5010531;28;20022;-93
2022/05/26 11:13:37;;;;;;;8.45;5.50;;;;;;;22.13;42.20;102000.66;5009239;28;20057;-92
2022/05/26 11:19:29;;;;;;;10.07;5.40;;;;;;;26.49;34.15;101997.44;4990162;28;20566;-93
2022/05/26 11:21:54;;;;;;;9.40;6.13;;;;;;;27.24;31.76;101996.13;4991521;28;20034;-93
2022/05/26 11:24:22;;;;;;;9.15;6.53;;;;;;;25.52;34.45;102000.59;5007535;28;20034;-93
2022/05/26 11:26:55;;;;;;;9.77;6.40;;;;;;;23.56;38.05;102002.22;5009102;28;20030;-93
2022/05/26 11:29:29;;;;;;;12.48;6.55;;;;;;;22.42;40.93;102010.13;5010250;28;20341;-93
2022/05/26 11:38:11;;;;;;;11.85;7.13;;;;;;;24.38;37.20;101999.44;5006753;28;20455;-93
2022/05/26 11:40:56;;;;;;;11.93;6.57;;;;;;;25.34;36.55;101967.78;5006900;28;20041;-94
2022/05/26 11:43:42;;;;;;;9.35;6.10;;;;;;;24.78;36.60;101985.72;5006410;28;20046;-92
2022/05/26 11:46:09;;;;;;;11.38;5.20;;;;;;;23.47;38.82;101981.28;4988669;28;20057;-93
2022/05/26 11:48:41;;;;;;;8.00;5.22;;;;;;;22.40;40.80;101990.38;4989043;28;20042;-93
2022/05/26 11:51:12;;;;;;;10.65;6.25;;;;;;;21.69;42.58;101992.50;4989355;28;20484;-91
2022/05/26 11:53:41;;;;;;;8.50;5.35;;;;;;;21.07;44.22;101986.47;4993150;28;20096;-93
2022/05/26 11:56:25;;;;;;;9.93;6.72;;;;;;;20.96;43.75;101974.75;5008907;28;20034;-92
2022/05/26 11:59:20;;;;;;;9.95;7.30;;;;;;;20.91;44.27;101976.94;5008257;28;20033;-94
2022/05/26 12:01:47;;;;;;;9.02;5.93;;;;;;;20.96;44.44;101969.34;5007044;28;20518;-91
2022/05/26 12:04:12;;;;;;;7.75;5.82;;;;;;;21.36;44.56;101959.88;5006844;28;20101;-91
2022/05/26 12:06:37;;;;;;;8.10;5.97;;;;;;;21.97;41.72;101969.47;5007915;28;20113;-93
2022/05/26 12:09:04;;;;;;;8.40;4.90;;;;;;;23.40;39.53;101967.34;5008910;28;20269;-92
2022/05/26 12:11:51;;;;;;;8.10;4.65;;;;;;;24.00;38.74;101959.38;5009084;28;20782;-93
2022/05/26 12:14:57;;;;;;;8.30;4.18;;;;;;;23.74;38.95;101967.97;5007334;28;20029;-91
2022/05/26 12:17:30;;;;;;;8.85;4.05;;;;;;;24.50;38.07;101964.81;5000936;28;20656;-90
2022/05/26 12:20:24;;;;;;;7.28;3.65;;;;;;;25.53;37.14;101962.25;5011853;28;20041;-93
2022/05/26 12:22:50;;;;;;;7.95;3.25;;;;;;;24.39;38.32;101968.50;4984894;28;20306;-90